sensor_id;sensor_type;location;lat;lon;timestamp;pressure;altitude;pressure_sealevel;temperature;humidity
20015;BME280;61787;42.022;23.078;2023-03-23T00:00:22;96755.63;;;9.29;80.02
20015;BME280;61787;42.022;23.078;2023-03-23T00:01:23;96755.31;;;9.31;79.78
20015;BME280;61787;42.022;23.078;2023-03-23T00:02:28;96755.97;;;9.28;80.29
20015;BME280;61787;42.022;23.078;2023-03-23T00:03:29;96752.38;;;9.24;80.86
20015;BME280;61787;42.022;23.078;2023-03-23T00:04:32;96755.72;;;9.21;80.84
20015;BME280;61787;42.022;23.078;2023-03-23T00:05:32;96751.47;;;9.20;80.09
20015;BME280;61787;42.022;23.078;2023-03-23T00:06:33;96759.03;;;9.18;80.56
20015;BME280;61787;42.022;23.078;2023-03-23T00:07:35;96758.25;;;9.17;81.47
20015;BME280;61787;42.022;23.078;2023-03-23T00:08:37;96751.84;;;9.10;80.65
20015;BME280;61787;42.022;23.078;2023-03-23T00:09:45;96754.25;;;9.03;80.82
20015;BME280;61787;42.022;23.078;2023-03-23T00:10:50;96751.97;;;8.92;80.81
20015;BME280;61787;42.022;23.078;2023-03-23T00:11:56;96750.47;;;8.74;81.48
20015;BME280;61787;42.022;23.078;2023-03-23T00:13:05;96742.06;;;8.55;82.38
20015;BME280;61787;42.022;23.078;2023-03-23T00:14:06;96752.03;;;8.37;83.08
20015;BME280;61787;42.022;23.078;2023-03-23T00:15:13;96743.13;;;8.07;84.82
20015;BME280;61787;42.022;23.078;2023-03-23T00:16:17;96741.59;;;7.89;86.05
20015;BME280;61787;42.022;23.078;2023-03-23T00:17:18;96750.22;;;7.86;86.34
20015;BME280;61787;42.022;23.078;2023-03-23T00:18:20;96745.81;;;7.99;86.04
20015;BME280;61787;42.022;23.078;2023-03-23T00:19:23;96743.13;;;8.07;85.91
20015;BME280;61787;42.022;23.078;2023-03-23T00:20:23;96744.22;;;8.15;85.39
20015;BME280;61787;42.022;23.078;2023-03-23T00:21:26;96747.03;;;8.19;85.06
20015;BME280;61787;42.022;23.078;2023-03-23T00:24:49;96744.34;;;8.19;84.21
20015;BME280;61787;42.022;23.078;2023-03-23T00:25:52;96742.44;;;8.28;84.37
20015;BME280;61787;42.022;23.078;2023-03-23T00:26:53;96740.09;;;8.35;83.53
20015;BME280;61787;42.022;23.078;2023-03-23T00:27:53;96744.94;;;8.41;82.77
20015;BME280;61787;42.022;23.078;2023-03-23T00:28:54;96742.88;;;8.47;81.95
20015;BME280;61787;42.022;23.078;2023-03-23T00:29:54;96741.16;;;8.51;82.00
20015;BME280;61787;42.022;23.078;2023-03-23T00:31:00;96741.59;;;8.53;81.97
20015;BME280;61787;42.022;23.078;2023-03-23T00:32:01;96735.28;;;8.57;81.72
20015;BME280;61787;42.022;23.078;2023-03-23T00:33:02;96742.50;;;8.57;81.06
20015;BME280;61787;42.022;23.078;2023-03-23T00:34:04;96744.56;;;8.60;81.02
20015;BME280;61787;42.022;23.078;2023-03-23T00:35:04;96743.91;;;8.63;81.45
20015;BME280;61787;42.022;23.078;2023-03-23T00:36:08;96749.59;;;8.62;81.09
20015;BME280;61787;42.022;23.078;2023-03-23T00:37:09;96745.19;;;8.57;80.61
20015;BME280;61787;42.022;23.078;2023-03-23T00:38:10;96751.66;;;8.56;80.79
20015;BME280;61787;42.022;23.078;2023-03-23T00:39:11;96745.84;;;8.54;81.63
20015;BME280;61787;42.022;23.078;2023-03-23T00:40:12;96744.91;;;8.50;81.04
20015;BME280;61787;42.022;23.078;2023-03-23T00:41:12;96748.03;;;8.52;81.16
20015;BME280;61787;42.022;23.078;2023-03-23T00:42:15;96740.34;;;8.50;81.32
20015;BME280;61787;42.022;23.078;2023-03-23T00:43:18;96744.78;;;8.38;81.07
20015;BME280;61787;42.022;23.078;2023-03-23T00:44:19;96738.66;;;8.29;81.56
20015;BME280;61787;42.022;23.078;2023-03-23T00:45:23;96747.34;;;8.17;82.09
20015;BME280;61787;42.022;23.078;2023-03-23T00:46:24;96739.81;;;8.10;82.21
20015;BME280;61787;42.022;23.078;2023-03-23T00:47:24;96747.06;;;8.10;82.72
20015;BME280;61787;42.022;23.078;2023-03-23T00:48:25;96744.06;;;8.11;82.57
20015;BME280;61787;42.022;23.078;2023-03-23T00:49:25;96745.16;;;8.10;82.39
20015;BME280;61787;42.022;23.078;2023-03-23T00:50:26;96750.97;;;8.12;82.83
20015;BME280;61787;42.022;23.078;2023-03-23T00:51:27;96745.94;;;8.20;82.55
20015;BME280;61787;42.022;23.078;2023-03-23T00:52:27;96743.59;;;8.09;82.53
20015;BME280;61787;42.022;23.078;2023-03-23T00:53:28;96738.59;;;7.91;82.71
20015;BME280;61787;42.022;23.078;2023-03-23T00:54:28;96746.63;;;7.65;84.84
20015;BME280;61787;42.022;23.078;2023-03-23T00:55:29;96745.56;;;7.57;84.80
20015;BME280;61787;42.022;23.078;2023-03-23T00:56:30;96742.09;;;7.57;85.31
20015;BME280;61787;42.022;23.078;2023-03-23T00:57:31;96744.28;;;7.55;85.26
20015;BME280;61787;42.022;23.078;2023-03-23T00:58:31;96745.41;;;7.37;85.97
20015;BME280;61787;42.022;23.078;2023-03-23T00:59:32;96743.03;;;7.18;87.35
20015;BME280;61787;42.022;23.078;2023-03-23T01:00:33;96748.19;;;7.14;88.17
20015;BME280;61787;42.022;23.078;2023-03-23T01:01:34;96740.97;;;7.15;88.11
20015;BME280;61787;42.022;23.078;2023-03-23T01:02:35;96745.66;;;7.09;88.53
20015;BME280;61787;42.022;23.078;2023-03-23T01:03:36;96739.41;;;7.05;88.69
20015;BME280;61787;42.022;23.078;2023-03-23T01:04:38;96744.09;;;6.91;89.62
20015;BME280;61787;42.022;23.078;2023-03-23T01:05:39;96742.31;;;6.78;90.04
20015;BME280;61787;42.022;23.078;2023-03-23T01:06:43;96743.44;;;6.77;90.30
20015;BME280;61787;42.022;23.078;2023-03-23T01:07:43;96743.09;;;6.70;90.82
20015;BME280;61787;42.022;23.078;2023-03-23T01:08:44;96744.66;;;6.71;90.67
20015;BME280;61787;42.022;23.078;2023-03-23T01:09:49;96744.66;;;6.71;91.12
20015;BME280;61787;42.022;23.078;2023-03-23T01:10:50;96741.66;;;6.64;91.24
20015;BME280;61787;42.022;23.078;2023-03-23T01:11:51;96744.44;;;6.59;91.78
20015;BME280;61787;42.022;23.078;2023-03-23T01:12:52;96747.25;;;6.54;92.68
20015;BME280;61787;42.022;23.078;2023-03-23T01:13:52;96744.25;;;6.47;93.22
20015;BME280;61787;42.022;23.078;2023-03-23T01:14:53;96736.38;;;6.41;93.46
20015;BME280;61787;42.022;23.078;2023-03-23T01:15:53;96736.06;;;6.34;94.77
20015;BME280;61787;42.022;23.078;2023-03-23T01:16:54;96743.09;;;6.30;95.17
20015;BME280;61787;42.022;23.078;2023-03-23T01:17:55;96744.19;;;6.29;96.14
20015;BME280;61787;42.022;23.078;2023-03-23T01:18:56;96739.94;;;6.28;96.45
20015;BME280;61787;42.022;23.078;2023-03-23T01:19:56;96738.66;;;6.26;96.93
20015;BME280;61787;42.022;23.078;2023-03-23T01:20:56;96738.84;;;6.29;96.80
20015;BME280;61787;42.022;23.078;2023-03-23T01:21:57;96737.91;;;6.25;97.11
20015;BME280;61787;42.022;23.078;2023-03-23T01:22:58;96740.56;;;6.25;97.23
20015;BME280;61787;42.022;23.078;2023-03-23T01:24:00;96736.34;;;6.24;97.51
20015;BME280;61787;42.022;23.078;2023-03-23T01:25:01;96734.75;;;6.23;97.63
20015;BME280;61787;42.022;23.078;2023-03-23T01:26:11;96737.91;;;6.25;98.38
20015;BME280;61787;42.022;23.078;2023-03-23T01:27:11;96737.91;;;6.25;98.22
20015;BME280;61787;42.022;23.078;2023-03-23T01:28:12;96731.59;;;6.21;98.28
20015;BME280;61787;42.022;23.078;2023-03-23T01:29:12;96736.94;;;6.21;97.92
20015;BME280;61787;42.022;23.078;2023-03-23T01:30:14;96742.56;;;6.20;98.98
20015;BME280;61787;42.022;23.078;2023-03-23T01:31:20;96737.53;;;6.18;100.00
20015;BME280;61787;42.022;23.078;2023-03-23T01:32:21;96740.69;;;6.20;99.42
20015;BME280;61787;42.022;23.078;2023-03-23T01:33:21;96738.34;;;6.19;99.18
20015;BME280;61787;42.022;23.078;2023-03-23T01:34:22;96735.03;;;6.13;98.96
20015;BME280;61787;42.022;23.078;2023-03-23T01:35:22;96737.81;;;6.08;99.16
20015;BME280;61787;42.022;23.078;2023-03-23T01:36:25;96737.19;;;6.11;98.89
20015;BME280;61787;42.022;23.078;2023-03-23T01:37:29;96738.16;;;6.15;98.38
20015;BME280;61787;42.022;23.078;2023-03-23T01:38:30;96746.16;;;6.15;97.37
20015;BME280;61787;42.022;23.078;2023-03-23T01:39:31;96743.13;;;6.08;97.08
20015;BME280;61787;42.022;23.078;2023-03-23T01:40:31;96741.97;;;6.00;97.22
20015;BME280;61787;42.022;23.078;2023-03-23T01:41:33;96736.91;;;5.90;98.07
20015;BME280;61787;42.022;23.078;2023-03-23T01:42:36;96746.78;;;5.90;98.61
20015;BME280;61787;42.022;23.078;2023-03-23T01:46:20;96747.19;;;5.83;99.48
20015;BME280;61787;42.022;23.078;2023-03-23T01:47:22;96748.34;;;5.91;99.62
20015;BME280;61787;42.022;23.078;2023-03-23T01:48:37;96744.34;;;6.02;100.00
20015;BME280;61787;42.022;23.078;2023-03-23T01:49:42;96746.28;;;6.10;99.51
20015;BME280;61787;42.022;23.078;2023-03-23T01:51:04;96743.63;;;6.10;98.62
20015;BME280;61787;42.022;23.078;2023-03-23T01:52:14;96746.09;;;6.07;98.75
20015;BME280;61787;42.022;23.078;2023-03-23T01:53:18;96747.13;;;5.97;99.85
20015;BME280;61787;42.022;23.078;2023-03-23T01:54:20;96749.94;;;5.92;99.81
20015;BME280;61787;42.022;23.078;2023-03-23T01:55:22;96743.25;;;5.81;99.84
20015;BME280;61787;42.022;23.078;2023-03-23T01:56:26;96755.75;;;5.80;99.99
20015;BME280;61787;42.022;23.078;2023-03-23T01:57:30;96748.56;;;5.81;100.00
20015;BME280;61787;42.022;23.078;2023-03-23T01:58:32;96748.69;;;5.76;98.86
20015;BME280;61787;42.022;23.078;2023-03-23T01:59:34;96748.22;;;5.74;99.85
20015;BME280;61787;42.022;23.078;2023-03-23T02:00:36;96749.97;;;5.78;99.51
20015;BME280;61787;42.022;23.078;2023-03-23T02:01:41;96749.34;;;5.81;100.00
20015;BME280;61787;42.022;23.078;2023-03-23T02:02:47;96744.81;;;5.82;100.00
20015;BME280;61787;42.022;23.078;2023-03-23T02:03:48;96749.75;;;5.88;100.00
20015;BME280;61787;42.022;23.078;2023-03-23T02:04:49;96753.75;;;5.86;100.00
20015;BME280;61787;42.022;23.078;2023-03-23T02:05:50;96751.22;;;5.81;100.00
20015;BME280;61787;42.022;23.078;2023-03-23T02:06:52;96753.72;;;5.77;100.00
20015;BME280;61787;42.022;23.078;2023-03-23T02:07:53;96752.31;;;5.80;100.00
20015;BME280;61787;42.022;23.078;2023-03-23T02:08:54;96758.19;;;5.90;100.00
20015;BME280;61787;42.022;23.078;2023-03-23T02:09:55;96748.59;;;6.03;100.00
20015;BME280;61787;42.022;23.078;2023-03-23T02:10:55;96761.00;;;6.16;100.00
20015;BME280;61787;42.022;23.078;2023-03-23T02:11:56;96750.22;;;6.21;100.00
20015;BME280;61787;42.022;23.078;2023-03-23T02:12:59;96748.44;;;6.30;100.00
20015;BME280;61787;42.022;23.078;2023-03-23T02:14:01;96750.94;;;6.35;99.91
20015;BME280;61787;42.022;23.078;2023-03-23T02:15:04;96757.09;;;6.45;98.88
20015;BME280;61787;42.022;23.078;2023-03-23T02:24:16;96754.09;;;6.94;94.56
20015;BME280;61787;42.022;23.078;2023-03-23T02:25:46;96756.97;;;7.06;93.22
20015;BME280;61787;42.022;23.078;2023-03-23T02:27:08;96772.66;;;7.16;92.29
20015;BME280;61787;42.022;23.078;2023-03-23T02:28:37;96756.97;;;7.23;91.18
20015;BME280;61787;42.022;23.078;2023-03-23T02:32:27;96752.00;;;7.48;88.03
20015;BME280;61787;42.022;23.078;2023-03-23T02:33:37;96750.75;;;7.54;87.78
20015;BME280;61787;42.022;23.078;2023-03-23T02:34:45;96762.34;;;7.58;87.07
20015;BME280;61787;42.022;23.078;2023-03-23T02:35:59;96757.16;;;7.61;86.92
20015;BME280;61787;42.022;23.078;2023-03-23T02:37:09;96761.09;;;7.64;86.53
20015;BME280;61787;42.022;23.078;2023-03-23T02:38:16;96757.94;;;7.62;86.12
20015;BME280;61787;42.022;23.078;2023-03-23T02:39:22;96763.94;;;7.59;85.91
20015;BME280;61787;42.022;23.078;2023-03-23T02:40:27;96759.69;;;7.58;85.91
20015;BME280;61787;42.022;23.078;2023-03-23T02:41:34;96755.44;;;7.57;85.70
20015;BME280;61787;42.022;23.078;2023-03-23T02:42:37;96764.38;;;7.61;85.63
20015;BME280;61787;42.022;23.078;2023-03-23T02:43:42;96759.53;;;7.63;84.75
20015;BME280;61787;42.022;23.078;2023-03-23T02:44:45;96762.81;;;7.68;83.05
20015;BME280;61787;42.022;23.078;2023-03-23T02:45:47;96762.81;;;7.68;82.54
20015;BME280;61787;42.022;23.078;2023-03-23T02:46:48;96764.38;;;7.69;82.08
20015;BME280;61787;42.022;23.078;2023-03-23T02:47:52;96756.69;;;7.68;82.09
20015;BME280;61787;42.022;23.078;2023-03-23T02:48:54;96758.88;;;7.66;82.84
20015;BME280;61787;42.022;23.078;2023-03-23T02:49:57;96760.63;;;7.62;82.41
20015;BME280;61787;42.022;23.078;2023-03-23T02:50:59;96767.03;;;7.61;82.94
20015;BME280;61787;42.022;23.078;2023-03-23T02:52:06;96769.88;;;7.56;82.56
20015;BME280;61787;42.022;23.078;2023-03-23T02:53:09;96763.13;;;7.58;81.87
20015;BME280;61787;42.022;23.078;2023-03-23T02:54:10;96766.59;;;7.59;81.66
20015;BME280;61787;42.022;23.078;2023-03-23T02:55:12;96764.09;;;7.54;82.69
20015;BME280;61787;42.022;23.078;2023-03-23T02:56:14;96758.28;;;7.43;82.76
20015;BME280;61787;42.022;23.078;2023-03-23T02:57:15;96764.03;;;7.19;84.05
20015;BME280;61787;42.022;23.078;2023-03-23T02:58:16;96763.72;;;7.12;85.48
20015;BME280;61787;42.022;23.078;2023-03-23T02:59:16;96766.69;;;7.19;85.62
20015;BME280;61787;42.022;23.078;2023-03-23T03:00:17;96767.34;;;7.16;85.18
20015;BME280;61787;42.022;23.078;2023-03-23T03:02:41;96769.06;;;7.29;84.30
20015;BME280;61787;42.022;23.078;2023-03-23T03:03:43;96776.47;;;7.33;84.63
20015;BME280;61787;42.022;23.078;2023-03-23T03:06:34;96773.50;;;7.43;83.97
20015;BME280;61787;42.022;23.078;2023-03-23T03:09:56;96782.25;;;7.35;83.52
20015;BME280;61787;42.022;23.078;2023-03-23T03:11:08;96781.13;;;7.18;84.66
20015;BME280;61787;42.022;23.078;2023-03-23T03:12:27;96781.41;;;6.91;84.99
20015;BME280;61787;42.022;23.078;2023-03-23T03:13:47;96781.34;;;6.74;85.83
20015;BME280;61787;42.022;23.078;2023-03-23T03:16:28;96783.03;;;6.61;87.51
20015;BME280;61787;42.022;23.078;2023-03-23T03:17:31;96784.75;;;6.66;87.25
20015;BME280;61787;42.022;23.078;2023-03-23T03:19:02;96779.44;;;6.66;87.92
20015;BME280;61787;42.022;23.078;2023-03-23T03:20:04;96779.91;;;6.68;87.72
20015;BME280;61787;42.022;23.078;2023-03-23T03:21:13;96778.47;;;6.62;87.65
20015;BME280;61787;42.022;23.078;2023-03-23T03:22:15;96781.44;;;6.60;88.28
20015;BME280;61787;42.022;23.078;2023-03-23T03:23:17;96777.38;;;6.63;88.67
20015;BME280;61787;42.022;23.078;2023-03-23T03:24:21;96774.69;;;6.63;88.99
20015;BME280;61787;42.022;23.078;2023-03-23T03:25:23;96779.56;;;6.61;88.80
20015;BME280;61787;42.022;23.078;2023-03-23T03:26:25;96776.91;;;6.61;89.09
20015;BME280;61787;42.022;23.078;2023-03-23T03:27:30;96777.69;;;6.61;88.91
20015;BME280;61787;42.022;23.078;2023-03-23T03:28:32;96777.34;;;6.54;89.34
20015;BME280;61787;42.022;23.078;2023-03-23T03:29:36;96780.56;;;6.42;90.02
20015;BME280;61787;42.022;23.078;2023-03-23T03:30:38;96771.84;;;6.51;89.74
20015;BME280;61787;42.022;23.078;2023-03-23T03:31:40;96777.50;;;6.58;89.16
20015;BME280;61787;42.022;23.078;2023-03-23T03:32:48;96773.13;;;6.62;88.46
20015;BME280;61787;42.022;23.078;2023-03-23T03:33:51;96779.91;;;6.68;88.67
20015;BME280;61787;42.022;23.078;2023-03-23T03:34:51;96782.13;;;6.74;88.06
20015;BME280;61787;42.022;23.078;2023-03-23T03:35:57;96780.09;;;6.80;87.85
20015;BME280;61787;42.022;23.078;2023-03-23T03:36:59;96788.59;;;6.82;87.89
20015;BME280;61787;42.022;23.078;2023-03-23T03:38:06;96781.97;;;6.71;88.57
20015;BME280;61787;42.022;23.078;2023-03-23T03:39:09;96788.69;;;6.68;88.55
20015;BME280;61787;42.022;23.078;2023-03-23T03:40:13;96790.09;;;6.66;88.42
20015;BME280;61787;42.022;23.078;2023-03-23T03:41:15;96786.25;;;6.50;89.12
20015;BME280;61787;42.022;23.078;2023-03-23T03:42:16;96783.56;;;6.41;90.03
20015;BME280;61787;42.022;23.078;2023-03-23T03:43:17;96784.78;;;6.35;90.10
20015;BME280;61787;42.022;23.078;2023-03-23T03:44:18;96784.59;;;6.31;90.28
20015;BME280;61787;42.022;23.078;2023-03-23T03:45:19;96791.75;;;6.22;90.78
20015;BME280;61787;42.022;23.078;2023-03-23T03:46:20;96785.72;;;6.08;90.99
20015;BME280;61787;42.022;23.078;2023-03-23T03:47:20;96784.16;;;6.07;91.66
20015;BME280;61787;42.022;23.078;2023-03-23T03:48:21;96790.22;;;5.99;91.95
20015;BME280;61787;42.022;23.078;2023-03-23T03:49:21;96794.66;;;5.90;91.95
20015;BME280;61787;42.022;23.078;2023-03-23T03:50:22;96790.16;;;5.77;93.42
20015;BME280;61787;42.022;23.078;2023-03-23T03:51:25;96791.38;;;5.71;93.50
20015;BME280;61787;42.022;23.078;2023-03-23T03:52:26;96790.03;;;5.59;95.05
20015;BME280;61787;42.022;23.078;2023-03-23T03:53:27;96790.09;;;5.46;96.01
20015;BME280;61787;42.022;23.078;2023-03-23T03:54:28;96794.31;;;5.47;96.64
20015;BME280;61787;42.022;23.078;2023-03-23T03:55:29;96795.22;;;5.42;96.61
20015;BME280;61787;42.022;23.078;2023-03-23T03:56:35;96788.72;;;5.48;96.70
20015;BME280;61787;42.022;23.078;2023-03-23T03:57:38;96789.91;;;5.65;96.21
20015;BME280;61787;42.022;23.078;2023-03-23T03:58:38;96790.16;;;5.77;95.83
20015;BME280;61787;42.022;23.078;2023-03-23T03:59:39;96795.47;;;5.90;95.32
20015;BME280;61787;42.022;23.078;2023-03-23T04:00:39;96785.22;;;6.06;93.42
20015;BME280;61787;42.022;23.078;2023-03-23T04:01:41;96788.63;;;6.20;91.42
20015;BME280;61787;42.022;23.078;2023-03-23T04:02:47;96794.16;;;6.32;90.22
20015;BME280;61787;42.022;23.078;2023-03-23T04:03:51;96786.53;;;6.39;89.80
20015;BME280;61787;42.022;23.078;2023-03-23T04:04:51;96791.41;;;6.46;89.40
20015;BME280;61787;42.022;23.078;2023-03-23T04:05:54;96788.78;;;6.55;88.40
20015;BME280;61787;42.022;23.078;2023-03-23T04:06:55;96788.94;;;6.58;88.27
20015;BME280;61787;42.022;23.078;2023-03-23T04:07:57;96789.75;;;6.59;87.51
20015;BME280;61787;42.022;23.078;2023-03-23T04:09:04;96788.03;;;6.63;87.33
20015;BME280;61787;42.022;23.078;2023-03-23T04:10:07;96784.13;;;6.69;86.64
20015;BME280;61787;42.022;23.078;2023-03-23T04:11:09;96788.88;;;6.72;86.64
20015;BME280;61787;42.022;23.078;2023-03-23T04:12:10;96785.44;;;6.80;85.62
20015;BME280;61787;42.022;23.078;2023-03-23T04:13:10;96782.63;;;6.85;85.70
20015;BME280;61787;42.022;23.078;2023-03-23T04:14:11;96782.00;;;6.88;85.28
20015;BME280;61787;42.022;23.078;2023-03-23T04:15:11;96786.25;;;6.89;85.66
20015;BME280;61787;42.022;23.078;2023-03-23T04:16:12;96781.56;;;6.95;85.74
20015;BME280;61787;42.022;23.078;2023-03-23T04:17:13;96786.59;;;6.96;85.05
20015;BME280;61787;42.022;23.078;2023-03-23T04:18:16;96788.63;;;6.99;85.09
20015;BME280;61787;42.022;23.078;2023-03-23T04:19:18;96784.88;;;7.00;85.29
20015;BME280;61787;42.022;23.078;2023-03-23T04:20:18;96791.78;;;7.01;85.16
20015;BME280;61787;42.022;23.078;2023-03-23T04:21:19;96793.00;;;6.95;84.26
20015;BME280;61787;42.022;23.078;2023-03-23T04:22:20;96791.44;;;6.94;84.24
20015;BME280;61787;42.022;23.078;2023-03-23T04:23:26;96790.34;;;6.95;83.99
20015;BME280;61787;42.022;23.078;2023-03-23T04:24:27;96794.59;;;6.96;84.23
20015;BME280;61787;42.022;23.078;2023-03-23T04:25:32;96793.66;;;7.01;84.51
20015;BME280;61787;42.022;23.078;2023-03-23T04:26:33;96796.78;;;7.03;83.63
20015;BME280;61787;42.022;23.078;2023-03-23T04:27:33;96792.56;;;7.10;83.10
20015;BME280;61787;42.022;23.078;2023-03-23T04:28:34;96790.84;;;7.14;83.21
20015;BME280;61787;42.022;23.078;2023-03-23T04:29:35;96790.25;;;7.17;82.99
20015;BME280;61787;42.022;23.078;2023-03-23T04:30:35;96786.78;;;7.25;82.28
20015;BME280;61787;42.022;23.078;2023-03-23T04:31:36;96790.88;;;7.23;81.96
20015;BME280;61787;42.022;23.078;2023-03-23T04:32:38;96791.97;;;7.22;82.41
20015;BME280;61787;42.022;23.078;2023-03-23T04:33:41;96789.63;;;7.20;82.30
20015;BME280;61787;42.022;23.078;2023-03-23T04:34:41;96791.97;;;7.22;82.95
20015;BME280;61787;42.022;23.078;2023-03-23T04:35:43;96796.22;;;7.23;82.96
20015;BME280;61787;42.022;23.078;2023-03-23T04:36:45;96797.47;;;7.25;82.85
20015;BME280;61787;42.022;23.078;2023-03-23T04:37:49;96801.06;;;7.21;82.63
20015;BME280;61787;42.022;23.078;2023-03-23T04:38:50;96808.72;;;7.05;82.82
20015;BME280;61787;42.022;23.078;2023-03-23T04:39:52;96808.06;;;6.91;83.49
20015;BME280;61787;42.022;23.078;2023-03-23T04:41:00;96812.72;;;6.77;84.54
20015;BME280;61787;42.022;23.078;2023-03-23T04:42:02;96811.56;;;6.69;85.82
20015;BME280;61787;42.022;23.078;2023-03-23T04:43:02;96816.34;;;6.50;86.33
20015;BME280;61787;42.022;23.078;2023-03-23T04:44:07;96808.16;;;6.47;87.95
20015;BME280;61787;42.022;23.078;2023-03-23T04:45:08;96805.50;;;6.47;88.45
20015;BME280;61787;42.022;23.078;2023-03-23T04:46:08;96802.84;;;6.47;87.83
20015;BME280;61787;42.022;23.078;2023-03-23T04:47:09;96809.56;;;6.44;88.14
20015;BME280;61787;42.022;23.078;2023-03-23T04:48:10;96801.44;;;6.49;88.31
20015;BME280;61787;42.022;23.078;2023-03-23T04:49:16;96806.03;;;6.57;87.35
20015;BME280;61787;42.022;23.078;2023-03-23T04:50:21;96808.25;;;6.64;86.92
20015;BME280;61787;42.022;23.078;2023-03-23T04:51:28;96807.66;;;6.67;86.76
20015;BME280;61787;42.022;23.078;2023-03-23T04:52:28;96819.72;;;6.73;87.00
20015;BME280;61787;42.022;23.078;2023-03-23T04:53:30;96811.91;;;6.76;86.53
20015;BME280;61787;42.022;23.078;2023-03-23T04:54:31;96810.50;;;6.79;85.97
20015;BME280;61787;42.022;23.078;2023-03-23T04:55:33;96816.78;;;6.83;85.69
20015;BME280;61787;42.022;23.078;2023-03-23T04:56:37;96819.94;;;6.85;85.87
20015;BME280;61787;42.022;23.078;2023-03-23T04:57:38;96819.91;;;6.76;85.75
20015;BME280;61787;42.022;23.078;2023-03-23T04:58:39;96815.06;;;6.48;87.13
20015;BME280;61787;42.022;23.078;2023-03-23T04:59:42;96833.63;;;6.08;89.78
20015;BME280;61787;42.022;23.078;2023-03-23T05:00:44;96837.31;;;5.85;91.25
20015;BME280;61787;42.022;23.078;2023-03-23T05:01:50;96831.38;;;5.66;92.27
20015;BME280;61787;42.022;23.078;2023-03-23T05:02:52;96840.09;;;5.44;94.23
20015;BME280;61787;42.022;23.078;2023-03-23T05:03:56;96840.03;;;5.35;95.42
20015;BME280;61787;42.022;23.078;2023-03-23T05:04:57;96845.25;;;5.40;95.70
20015;BME280;61787;42.022;23.078;2023-03-23T05:06:01;96838.13;;;5.49;96.14
20015;BME280;61787;42.022;23.078;2023-03-23T05:07:03;96837.63;;;5.61;96.45
20015;BME280;61787;42.022;23.078;2023-03-23T05:08:03;96837.31;;;5.63;96.39
20015;BME280;61787;42.022;23.078;2023-03-23T05:09:04;96839.25;;;5.71;96.04
20015;BME280;61787;42.022;23.078;2023-03-23T05:10:07;96844.34;;;5.81;95.02
20015;BME280;61787;42.022;23.078;2023-03-23T05:11:08;96835.88;;;5.92;95.16
20015;BME280;61787;42.022;23.078;2023-03-23T05:12:09;96830.47;;;6.06;94.17
20015;BME280;61787;42.022;23.078;2023-03-23T05:13:10;96826.84;;;6.24;92.48
20015;BME280;61787;42.022;23.078;2023-03-23T05:14:11;96826.84;;;6.24;91.49
20015;BME280;61787;42.022;23.078;2023-03-23T05:15:13;96820.69;;;6.15;92.21
20015;BME280;61787;42.022;23.078;2023-03-23T05:16:14;96819.47;;;5.99;92.22
20015;BME280;61787;42.022;23.078;2023-03-23T05:17:15;96821.34;;;5.98;93.60
20015;BME280;61787;42.022;23.078;2023-03-23T05:18:17;96822.28;;;5.94;95.08
20015;BME280;61787;42.022;23.078;2023-03-23T05:19:17;96824.19;;;6.02;96.32
20015;BME280;61787;42.022;23.078;2023-03-23T05:20:18;96830.69;;;6.10;95.88
20015;BME280;61787;42.022;23.078;2023-03-23T05:21:20;96827.56;;;6.16;96.31
20015;BME280;61787;42.022;23.078;2023-03-23T05:22:21;96829.63;;;6.19;95.83
20015;BME280;61787;42.022;23.078;2023-03-23T05:23:21;96829.03;;;6.22;95.21
20015;BME280;61787;42.022;23.078;2023-03-23T05:24:24;96833.75;;;6.25;94.18
20015;BME280;61787;42.022;23.078;2023-03-23T05:25:25;96832.72;;;6.35;94.81
20015;BME280;61787;42.022;23.078;2023-03-23T05:26:27;96829.91;;;6.40;94.29
20015;BME280;61787;42.022;23.078;2023-03-23T05:27:31;96832.13;;;6.47;93.13
20015;BME280;61787;42.022;23.078;2023-03-23T05:28:32;96833.41;;;6.49;93.53
20015;BME280;61787;42.022;23.078;2023-03-23T05:29:34;96843.16;;;6.54;93.87
20015;BME280;61787;42.022;23.078;2023-03-23T05:30:36;96842.41;;;6.62;93.62
20015;BME280;61787;42.022;23.078;2023-03-23T05:31:38;96833.66;;;6.70;93.24
20015;BME280;61787;42.022;23.078;2023-03-23T05:32:40;96841.53;;;6.75;91.86
20015;BME280;61787;42.022;23.078;2023-03-23T05:33:40;96838.59;;;6.85;91.38
20015;BME280;61787;42.022;23.078;2023-03-23T05:34:41;96841.59;;;6.92;91.55
20015;BME280;61787;42.022;23.078;2023-03-23T05:35:43;96841.94;;;6.99;91.22
20015;BME280;61787;42.022;23.078;2023-03-23T05:36:43;96843.38;;;7.05;90.92
20015;BME280;61787;42.022;23.078;2023-03-23T05:37:44;96853.91;;;7.10;90.43
20015;BME280;61787;42.022;23.078;2023-03-23T05:38:45;96847.34;;;7.16;91.04
20015;BME280;61787;42.022;23.078;2023-03-23T05:39:49;96852.84;;;7.28;95.27
20015;BME280;61787;42.022;23.078;2023-03-23T05:40:53;96860.84;;;7.28;93.33
20015;BME280;61787;42.022;23.078;2023-03-23T05:41:54;96856.47;;;7.33;91.13
20015;BME280;61787;42.022;23.078;2023-03-23T05:42:55;96863.63;;;7.15;89.09
20015;BME280;61787;42.022;23.078;2023-03-23T05:43:58;96858.56;;;6.96;88.08
20015;BME280;61787;42.022;23.078;2023-03-23T05:44:59;96862.56;;;6.85;88.96
20015;BME280;61787;42.022;23.078;2023-03-23T05:46:00;96864.72;;;6.74;89.37
20015;BME280;61787;42.022;23.078;2023-03-23T05:47:01;96856.75;;;6.83;89.95
20015;BME280;61787;42.022;23.078;2023-03-23T05:48:02;96861.69;;;6.98;89.95
20015;BME280;61787;42.022;23.078;2023-03-23T05:49:02;96859.06;;;7.07;89.43
20015;BME280;61787;42.022;23.078;2023-03-23T05:50:04;96858.44;;;7.18;88.54
20015;BME280;61787;42.022;23.078;2023-03-23T05:51:06;96855.50;;;7.28;87.94
20015;BME280;61787;42.022;23.078;2023-03-23T05:52:07;96856.47;;;7.33;87.45
20015;BME280;61787;42.022;23.078;2023-03-23T05:53:08;96858.38;;;7.41;86.85
20015;BME280;61787;42.022;23.078;2023-03-23T05:54:08;96854.94;;;7.49;87.26
20015;BME280;61787;42.022;23.078;2023-03-23T05:55:11;96860.28;;;7.49;87.45